Rockyford, South Dakota
Current Conditions -  °F | °C
As of 3:52 PM on Friday 28 Nov 2014 (Local Time) from KIEN Reporting Station
Clear Clear  
Wind Chill: 53°   Ceiling: Unl
Heat Index: 53°   Visibility: 10mi
Dew Point: 27°   Wind: 8mph
Humidity: 37%   Direction: 260°W
Pressure: 29.63"   Gusts: NA
Location:  43.2863°N, 102.209°W
Report Text: KIEN 282252Z AUTO 26007KT 10SM CLR 12/M03 A2963 RMK AO2 SLP036 T01171028
Loading
Personal Weather Stations






























Interactive Weather Map New forecast layout! Learn more

10-Day Weather Forecast

Advertisements
Track Severe Weather on mobile